createdAt,value
2018-09-23T00:00:18.372Z,10.03
2018-09-23T00:02:48.183Z,10.05
2018-09-23T00:05:19.208Z,10.50
2018-09-23T00:07:48.870Z,12.53
2018-09-23T00:10:18.550Z,10.87
2018-09-23T00:12:48.209Z,11.30
2018-09-23T00:15:17.913Z,12.33
2018-09-23T00:17:47.711Z,16.00
2018-09-23T00:20:17.582Z,13.97
2018-09-23T00:22:47.317Z,14.40
2018-09-23T00:25:16.981Z,12.23
2018-09-23T00:27:46.645Z,13.40
2018-09-23T00:30:16.353Z,20.53
2018-09-23T00:32:46.104Z,20.70
2018-09-23T00:35:15.791Z,19.10
2018-09-23T00:37:45.454Z,17.27
2018-09-23T00:40:15.173Z,15.40
2018-09-23T00:42:44.902Z,18.70
2018-09-23T00:45:14.561Z,16.33
2018-09-23T00:47:44.283Z,15.80
2018-09-23T00:50:14.077Z,15.03
2018-09-23T00:52:43.974Z,12.57
2018-09-23T00:55:13.852Z,18.13
2018-09-23T00:57:43.621Z,12.55
2018-09-23T01:00:13.349Z,12.20
2018-09-23T01:02:43.063Z,16.52
2018-09-23T01:05:12.857Z,12.10
2018-09-23T01:07:42.525Z,12.10
2018-09-23T01:10:12.261Z,15.40
2018-09-23T01:12:41.902Z,11.27
2018-09-23T01:15:11.911Z,15.40
2018-09-23T01:17:42.131Z,14.70
2018-09-23T01:20:11.791Z,9.60
2018-09-23T01:22:41.460Z,14.60
2018-09-23T01:25:11.155Z,11.80
2018-09-23T01:27:40.786Z,9.90
2018-09-23T01:30:10.519Z,9.57
2018-09-23T01:32:40.283Z,11.07
2018-09-23T01:35:09.952Z,9.37
2018-09-23T01:37:39.607Z,7.80
2018-09-23T01:40:09.280Z,7.30
2018-09-23T01:42:39.050Z,14.20
2018-09-23T01:45:08.903Z,9.63
2018-09-23T01:47:38.807Z,6.80
2018-09-23T01:50:08.431Z,8.03
2018-09-23T01:52:38.216Z,7.97
2018-09-23T01:55:07.906Z,7.37
2018-09-23T01:57:37.576Z,11.00
2018-09-23T02:00:07.376Z,12.67
2018-09-23T02:02:37.207Z,6.83
2018-09-23T02:05:06.990Z,8.83
2018-09-23T02:07:36.726Z,7.97
2018-09-23T02:10:06.515Z,6.80
2018-09-23T02:12:36.193Z,10.83
2018-09-23T02:15:06.681Z,10.63
2018-09-23T02:17:36.385Z,7.23
2018-09-23T02:20:06.244Z,6.40
2018-09-23T02:22:35.893Z,6.30
2018-09-23T02:25:05.634Z,6.23
2018-09-23T02:27:35.379Z,6.00
2018-09-23T02:30:05.089Z,6.60
2018-09-23T02:32:34.726Z,8.73
2018-09-23T02:35:04.391Z,7.23
2018-09-23T02:37:34.190Z,6.83
2018-09-23T02:40:03.921Z,6.17
2018-09-23T02:42:33.617Z,13.03
2018-09-23T02:45:03.327Z,5.97
2018-09-23T02:47:33.051Z,9.35
2018-09-23T02:50:02.812Z,8.95
2018-09-23T02:52:32.481Z,8.60
2018-09-23T02:55:02.187Z,7.87
2018-09-23T02:57:31.949Z,7.00
2018-09-23T03:00:01.668Z,7.73
2018-09-23T03:02:31.462Z,6.33
2018-09-23T03:05:01.074Z,6.27
2018-09-23T03:07:30.856Z,6.83
2018-09-23T03:10:00.553Z,6.53
2018-09-23T03:12:30.193Z,6.23
2018-09-23T03:15:00.064Z,5.80
2018-09-23T03:17:29.685Z,6.40
2018-09-23T03:19:59.436Z,5.67
2018-09-23T03:22:29.074Z,5.27
2018-09-23T03:24:58.880Z,6.83
2018-09-23T03:27:28.566Z,6.13
2018-09-23T03:29:58.313Z,5.90
2018-09-23T03:32:28.030Z,5.67
2018-09-23T03:34:57.657Z,5.37
2018-09-23T03:37:27.403Z,4.20
2018-09-23T03:39:57.058Z,7.90
2018-09-23T03:42:26.952Z,6.50
2018-09-23T03:44:56.660Z,5.07
2018-09-23T03:47:26.315Z,4.83
2018-09-23T03:49:55.933Z,5.00
2018-09-23T03:52:25.741Z,5.60
2018-09-23T03:54:55.341Z,5.33
2018-09-23T03:57:25.138Z,6.63
2018-09-23T03:59:54.761Z,3.23
2018-09-23T04:02:24.401Z,3.70
2018-09-23T04:04:54.073Z,5.17
2018-09-23T04:07:23.706Z,3.33
2018-09-23T04:09:53.374Z,4.77
2018-09-23T04:12:23.098Z,2.50
2018-09-23T04:14:52.783Z,2.90
2018-09-23T04:17:22.395Z,2.83
2018-09-23T04:19:52.021Z,2.30
2018-09-23T04:22:21.681Z,2.70
2018-09-23T04:24:51.437Z,2.30
2018-09-23T04:27:21.139Z,2.43
2018-09-23T04:29:50.817Z,2.47
2018-09-23T04:32:20.596Z,2.47
2018-09-23T04:34:50.277Z,2.80
2018-09-23T04:37:19.926Z,2.40
2018-09-23T04:39:52.503Z,1.60
2018-09-23T04:42:22.264Z,3.73
2018-09-23T04:44:52.058Z,1.97
2018-09-23T04:47:21.657Z,2.97
2018-09-23T04:49:51.424Z,3.07
2018-09-23T04:52:21.191Z,2.30
2018-09-23T04:54:50.935Z,2.10
2018-09-23T04:57:20.598Z,2.10
2018-09-23T04:59:50.369Z,3.00
2018-09-23T05:02:20.069Z,2.33
2018-09-23T05:04:49.868Z,1.80
2018-09-23T05:07:20.384Z,1.83
2018-09-23T05:09:50.191Z,2.23
2018-09-23T05:12:19.874Z,1.63
2018-09-23T05:14:49.575Z,1.90
2018-09-23T05:17:19.209Z,2.73
2018-09-23T05:19:48.967Z,4.60
2018-09-23T05:22:18.957Z,1.97
2018-09-23T05:24:48.734Z,2.67
2018-09-23T05:27:18.398Z,1.50
2018-09-23T05:29:48.048Z,4.33
2018-09-23T05:32:17.769Z,1.10
2018-09-23T05:34:47.437Z,1.93
2018-09-23T05:37:17.098Z,1.57
2018-09-23T05:39:46.773Z,1.70
2018-09-23T05:42:16.496Z,1.33
2018-09-23T05:44:46.347Z,2.00
2018-09-23T05:47:15.992Z,1.40
2018-09-23T05:49:45.729Z,2.17
2018-09-23T05:52:15.410Z,1.53
2018-09-23T05:54:45.119Z,1.93
2018-09-23T05:57:14.794Z,1.83
2018-09-23T05:59:44.461Z,1.40
2018-09-23T06:02:14.206Z,2.27
2018-09-23T06:04:43.983Z,1.20
2018-09-23T06:07:13.941Z,1.50
2018-09-23T06:09:43.716Z,1.20
2018-09-23T06:12:13.388Z,1.50
2018-09-23T06:14:43.173Z,1.30
2018-09-23T06:17:13.066Z,1.80
2018-09-23T06:19:43.021Z,2.10
2018-09-23T06:22:12.688Z,1.00
2018-09-23T06:24:42.420Z,1.20
2018-09-23T06:27:12.191Z,1.87
2018-09-23T06:29:41.883Z,1.70
2018-09-23T06:32:11.520Z,1.60
2018-09-23T06:34:41.506Z,2.03
2018-09-23T06:37:11.165Z,1.30
2018-09-23T06:39:40.882Z,1.17
2018-09-23T06:42:10.637Z,3.47
2018-09-23T06:44:43.536Z,1.73
2018-09-23T06:47:13.190Z,2.60
2018-09-23T06:49:42.953Z,1.40
2018-09-23T06:52:12.625Z,1.70
2018-09-23T06:54:42.486Z,1.53
2018-09-23T06:57:12.366Z,1.27
2018-09-23T06:59:42.179Z,1.20
2018-09-23T07:03:41.284Z,1.20
2018-09-23T07:06:10.969Z,1.07
2018-09-23T07:08:40.729Z,3.87
2018-09-23T07:11:10.386Z,2.83
2018-09-23T07:13:40.064Z,1.70
2018-09-23T07:16:09.773Z,1.50
2018-09-23T07:18:41.709Z,2.40
2018-09-23T07:21:11.539Z,1.93
2018-09-23T07:23:41.629Z,2.00
2018-09-23T07:26:11.625Z,1.63
2018-09-23T07:28:41.407Z,2.73
2018-09-23T07:31:12.042Z,2.30
2018-09-23T07:33:41.788Z,2.30
2018-09-23T07:36:11.421Z,2.13
2018-09-23T07:38:41.301Z,2.10
2018-09-23T07:41:10.987Z,1.67
2018-09-23T07:43:40.648Z,2.13
2018-09-23T07:46:10.511Z,1.80
2018-09-23T07:48:40.155Z,2.03
2018-09-23T07:51:10.009Z,1.33
2018-09-23T07:53:39.835Z,1.40
2018-09-23T07:56:09.605Z,1.40
2018-09-23T07:58:39.308Z,1.10
2018-09-23T08:01:09.076Z,1.20
2018-09-23T08:03:38.762Z,1.50
2018-09-23T08:06:10.273Z,0.90
2018-09-23T08:08:41.283Z,1.37
2018-09-23T08:11:10.973Z,1.83
2018-09-23T08:13:41.098Z,1.60
2018-09-23T08:16:10.726Z,1.00
2018-09-23T08:18:40.427Z,1.00
2018-09-23T08:21:10.175Z,1.40
2018-09-23T08:23:39.794Z,1.30
2018-09-23T08:26:09.712Z,1.23
2018-09-23T08:28:39.392Z,1.50
2018-09-23T08:31:09.274Z,1.50
2018-09-23T08:33:39.201Z,1.60
2018-09-23T08:36:09.045Z,1.20
2018-09-23T08:38:39.072Z,1.60
2018-09-23T08:41:08.751Z,1.17
2018-09-23T08:43:38.426Z,1.10
2018-09-23T08:46:08.097Z,2.40
2018-09-23T08:48:38.464Z,1.23
2018-09-23T08:51:08.463Z,1.10
2018-09-23T08:53:39.531Z,1.43
2018-09-23T08:56:09.347Z,1.10
2018-09-23T08:58:39.023Z,1.10
2018-09-23T09:01:09.436Z,1.40
2018-09-23T09:03:39.148Z,1.20
2018-09-23T09:06:09.270Z,1.27
2018-09-23T09:08:39.436Z,1.20
2018-09-23T09:11:09.146Z,0.90
2018-09-23T09:13:38.898Z,1.10
2018-09-23T09:16:08.627Z,1.27
2018-09-23T09:18:38.648Z,1.90
2018-09-23T09:21:08.827Z,1.30
2018-09-23T09:23:38.606Z,1.10
2018-09-23T09:26:08.286Z,1.87
2018-09-23T09:28:38.004Z,1.60
2018-09-23T09:31:07.829Z,1.23
2018-09-23T09:33:37.648Z,1.30
2018-09-23T09:36:07.817Z,1.07
2018-09-23T09:38:37.665Z,1.40
2018-09-23T09:41:07.989Z,1.60
2018-09-23T09:43:37.718Z,1.47
2018-09-23T09:46:07.907Z,1.30
2018-09-23T09:48:37.743Z,2.20
2018-09-23T09:51:07.890Z,1.40
2018-09-23T09:53:38.869Z,1.30
2018-09-23T09:56:08.807Z,1.10
2018-09-23T09:58:39.702Z,1.10
2018-09-23T10:01:09.680Z,1.40
2018-09-23T10:03:39.494Z,1.27
2018-09-23T10:06:09.190Z,1.33
2018-09-23T10:08:38.961Z,1.70
2018-09-23T10:11:08.920Z,1.60
2018-09-23T10:13:38.593Z,1.13
2018-09-23T10:16:09.087Z,1.60
2018-09-23T10:18:38.769Z,1.20
2018-09-23T10:21:08.488Z,1.33
2018-09-23T10:23:38.575Z,1.10
2018-09-23T10:26:09.589Z,1.00
2018-09-23T10:28:39.437Z,1.20
2018-09-23T10:31:09.268Z,1.00
2018-09-23T10:33:38.890Z,1.20
2018-09-23T10:36:08.761Z,1.63
2018-09-23T10:38:38.785Z,1.53
2018-09-23T10:41:08.648Z,2.43
2018-09-23T10:43:38.344Z,1.77
2018-09-23T10:46:08.310Z,1.80
2018-09-23T10:48:38.149Z,2.50
2018-09-23T10:51:08.606Z,3.30
2018-09-23T10:53:38.460Z,1.63
2018-09-23T10:56:08.158Z,4.00
2018-09-23T10:58:38.036Z,4.27
2018-09-23T11:01:07.882Z,5.53
2018-09-23T11:03:37.573Z,3.50
2018-09-23T11:06:07.698Z,2.67
2018-09-23T11:08:37.477Z,2.63
2018-09-23T11:11:07.360Z,4.37
2018-09-23T11:13:37.129Z,4.73
2018-09-23T11:16:06.912Z,3.13
2018-09-23T11:18:36.676Z,4.50
2018-09-23T11:21:06.385Z,4.20
2018-09-23T11:23:36.294Z,3.93
2018-09-23T11:26:10.432Z,3.67
2018-09-23T11:28:40.115Z,3.50
2018-09-23T11:31:10.027Z,3.20
2018-09-23T11:33:39.970Z,2.50
2018-09-23T11:36:09.690Z,2.23
2018-09-23T11:38:39.431Z,2.17
2018-09-23T11:41:09.835Z,1.70
2018-09-23T11:43:39.608Z,2.03
2018-09-23T11:46:09.345Z,1.50
2018-09-23T11:48:39.364Z,2.00
2018-09-23T11:51:09.048Z,2.57
2018-09-23T11:53:38.762Z,3.87
2018-09-23T11:56:08.627Z,3.07
2018-09-23T11:58:38.433Z,2.03
2018-09-23T12:01:08.249Z,3.33
2018-09-23T12:03:38.045Z,1.60
2018-09-23T12:06:07.884Z,3.23
2018-09-23T12:08:37.589Z,12.73
2018-09-23T12:11:07.293Z,6.30
2018-09-23T12:13:37.017Z,8.43
2018-09-23T12:16:06.779Z,2.97
2018-09-23T12:18:36.674Z,3.90
2018-09-23T12:21:06.421Z,3.60
2018-09-23T12:23:36.195Z,8.83
2018-09-23T12:26:06.193Z,7.23
2018-09-23T12:28:36.176Z,3.70
2018-09-23T12:31:05.983Z,4.03
2018-09-23T12:33:35.662Z,4.43
2018-09-23T12:36:05.629Z,7.93
2018-09-23T12:38:35.734Z,2.87
2018-09-23T12:41:05.625Z,1.70
2018-09-23T12:43:35.352Z,2.47
2018-09-23T12:46:05.113Z,6.23
2018-09-23T12:48:34.827Z,4.13
2018-09-23T12:51:04.540Z,4.33
2018-09-23T12:53:34.230Z,2.23
2018-09-23T12:56:04.094Z,3.93
2018-09-23T12:58:33.776Z,6.07
2018-09-23T13:01:03.564Z,4.73
2018-09-23T13:03:33.253Z,4.60
2018-09-23T13:06:02.933Z,3.00
2018-09-23T13:08:32.696Z,3.90
2018-09-23T13:11:02.411Z,2.40
2018-09-23T13:13:32.260Z,3.33
2018-09-23T13:16:01.990Z,2.83
2018-09-23T13:18:31.819Z,2.57
2018-09-23T13:21:01.633Z,4.23
2018-09-23T13:23:31.436Z,2.90
2018-09-23T13:26:01.176Z,3.60
2018-09-23T13:28:31.121Z,4.90
2018-09-23T13:31:00.955Z,3.50
2018-09-23T13:33:30.822Z,2.20
2018-09-23T13:36:00.566Z,4.50
2018-09-23T13:38:30.322Z,3.60
2018-09-23T13:41:00.104Z,2.13
2018-09-23T13:43:29.844Z,2.60
2018-09-23T13:46:00.140Z,6.70
2018-09-23T13:48:30.211Z,2.00
2018-09-23T13:51:07.382Z,2.60
2018-09-23T13:53:38.017Z,3.37
2018-09-23T13:56:07.779Z,2.73
2018-09-23T13:58:37.497Z,3.73
2018-09-23T14:01:07.157Z,2.57
2018-09-23T14:03:37.043Z,2.83
2018-09-23T14:06:06.801Z,3.60
2018-09-23T14:08:36.616Z,4.00
2018-09-23T14:11:06.874Z,5.00
2018-09-23T14:13:36.685Z,4.70
2018-09-23T14:16:06.711Z,5.50
2018-09-23T14:18:36.434Z,4.03
2018-09-23T14:21:06.626Z,5.33
2018-09-23T14:23:36.387Z,5.20
2018-09-23T14:26:06.122Z,5.20
2018-09-23T14:28:36.259Z,6.00
2018-09-23T14:31:06.204Z,6.13
2018-09-23T14:33:35.924Z,9.37
2018-09-23T14:36:06.033Z,5.53
2018-09-23T14:38:35.761Z,4.97
2018-09-23T14:41:07.169Z,6.37
2018-09-23T14:43:37.037Z,4.90
2018-09-23T14:46:07.160Z,6.03
2018-09-23T14:48:36.862Z,6.30
2018-09-23T14:51:07.090Z,5.47
2018-09-23T14:53:37.453Z,6.60
2018-09-23T14:56:07.410Z,7.27
2018-09-23T14:58:37.440Z,6.63
2018-09-23T15:01:07.273Z,6.40
2018-09-23T15:03:37.090Z,6.17
2018-09-23T15:06:07.167Z,6.27
2018-09-23T15:08:37.186Z,6.03
2018-09-23T15:11:07.308Z,6.13
2018-09-23T15:13:37.138Z,7.13
2018-09-23T15:16:07.038Z,5.60
2018-09-23T15:18:36.861Z,5.30
2018-09-23T15:21:08.097Z,7.60
2018-09-23T15:23:38.056Z,6.20
2018-09-23T15:26:08.063Z,4.90
2018-09-23T15:28:38.302Z,5.30
2018-09-23T15:31:08.093Z,4.47
2018-09-23T15:33:37.874Z,7.57
2018-09-23T15:36:07.794Z,5.20
2018-09-23T15:38:37.676Z,5.33
2018-09-23T15:41:08.316Z,4.90
2018-09-23T15:43:38.636Z,4.80
2018-09-23T15:46:08.533Z,4.73
2018-09-23T15:48:38.293Z,6.03
2018-09-23T15:51:08.254Z,5.10
2018-09-23T15:53:38.276Z,5.10
2018-09-23T15:56:08.166Z,5.57
2018-09-23T15:58:37.968Z,7.30
2018-09-23T16:01:08.085Z,6.20
2018-09-23T16:03:37.918Z,8.17
2018-09-23T16:06:07.743Z,6.33
2018-09-23T16:08:37.487Z,7.07
2018-09-23T16:11:07.856Z,6.80
2018-09-23T16:13:37.616Z,6.37
2018-09-23T16:16:08.067Z,6.30
2018-09-23T16:18:37.917Z,8.53
2018-09-23T16:21:07.928Z,10.23
2018-09-23T16:23:37.723Z,11.27
2018-09-23T16:26:07.441Z,8.37
2018-09-23T16:28:37.717Z,11.13
2018-09-23T16:31:07.462Z,7.20
2018-09-23T16:33:37.190Z,7.43
2018-09-23T16:36:06.986Z,7.73
2018-09-23T16:38:36.773Z,12.88
2018-09-23T16:41:07.071Z,10.73
2018-09-23T16:43:38.068Z,6.47
2018-09-23T16:46:07.978Z,6.03
2018-09-23T16:48:37.717Z,6.95
2018-09-23T16:51:07.476Z,13.37
2018-09-23T16:53:37.249Z,7.70
2018-09-23T16:56:07.489Z,4.67
2018-09-23T16:58:37.237Z,8.55
2018-09-23T17:01:07.170Z,4.65
2018-09-23T17:03:37.022Z,6.40
2018-09-23T17:06:07.025Z,4.20
2018-09-23T17:08:36.799Z,4.37
2018-09-23T17:11:06.750Z,4.37
2018-09-23T17:13:36.542Z,5.72
2018-09-23T17:16:06.314Z,6.50
2018-09-23T17:18:36.180Z,4.60
2018-09-23T17:21:06.076Z,6.45
2018-09-23T17:23:35.782Z,6.53
2018-09-23T17:26:05.487Z,7.28
2018-09-23T17:28:35.444Z,11.55
2018-09-23T17:31:05.131Z,12.37
2018-09-23T17:33:34.927Z,5.30
2018-09-23T17:36:04.680Z,12.73
2018-09-23T17:38:34.642Z,8.08
2018-09-23T17:41:06.056Z,10.72
2018-09-23T17:43:36.054Z,9.75
2018-09-23T17:46:06.532Z,8.45
2018-09-23T17:48:37.046Z,11.95
2018-09-23T17:51:07.737Z,8.70
2018-09-23T17:53:37.469Z,9.85
2018-09-23T17:56:07.481Z,8.53
2018-09-23T17:58:37.218Z,17.95
2018-09-23T18:01:06.997Z,13.13
2018-09-23T18:03:36.737Z,14.47
2018-09-23T18:06:06.543Z,19.17
2018-09-23T18:08:36.343Z,13.30
2018-09-23T18:11:06.385Z,10.18
2018-09-23T18:13:36.689Z,12.25
2018-09-23T18:16:06.679Z,8.38
2018-09-23T18:18:36.442Z,9.95
2018-09-23T18:21:06.740Z,12.15
2018-09-23T18:23:36.885Z,11.60
2018-09-23T18:26:06.859Z,8.45
2018-09-23T18:28:37.300Z,11.48
2018-09-23T18:31:07.776Z,9.35
2018-09-23T18:33:37.701Z,9.70
2018-09-23T18:36:07.496Z,5.53
2018-09-23T18:38:37.480Z,6.58
2018-09-23T18:41:07.504Z,9.20
2018-09-23T18:43:38.470Z,7.50
2018-09-23T18:46:09.462Z,14.07
2018-09-23T18:48:39.346Z,6.37
2018-09-23T18:51:09.413Z,11.03
2018-09-23T18:53:39.325Z,11.05
2018-09-23T18:56:09.653Z,7.70
2018-09-23T18:58:41.132Z,7.28
2018-09-23T19:01:11.100Z,9.03
2018-09-23T19:03:41.453Z,6.50
2018-09-23T19:06:11.436Z,7.00
2018-09-23T19:08:41.141Z,5.90
2018-09-23T19:11:11.046Z,10.00
2018-09-23T19:13:56.187Z,6.78
2018-09-23T19:16:32.747Z,7.67
2018-09-23T19:19:02.554Z,7.50
2018-09-23T19:21:34.009Z,7.58
2018-09-23T19:26:36.076Z,10.65
2018-09-23T19:29:05.954Z,7.67
2018-09-23T19:31:37.053Z,8.55
2018-09-23T19:34:07.178Z,7.40
2018-09-23T19:36:37.681Z,5.53
2018-09-23T19:39:09.414Z,5.20
2018-09-23T19:41:41.312Z,3.92
2018-09-23T19:44:11.461Z,5.28
2018-09-23T19:46:41.279Z,7.78
2018-09-23T19:49:11.424Z,6.47
2018-09-23T19:51:41.457Z,4.83
2018-09-23T19:54:11.712Z,5.50
2018-09-23T19:56:42.436Z,4.45
2018-09-23T19:59:12.390Z,3.30
2018-09-23T20:01:42.290Z,4.25
2018-09-23T20:04:12.437Z,7.77
2018-09-23T20:06:42.426Z,5.75
2018-09-23T20:09:12.496Z,4.12
2018-09-23T20:11:42.538Z,5.45
2018-09-23T20:14:13.773Z,4.08
2018-09-23T20:16:43.756Z,4.37
2018-09-23T20:19:13.473Z,3.35
2018-09-23T20:21:43.259Z,7.95
2018-09-23T20:24:13.694Z,3.55
2018-09-23T20:26:57.007Z,3.87
2018-09-23T20:29:26.763Z,4.53
2018-09-23T20:31:56.698Z,6.08
2018-09-23T20:34:26.434Z,2.55
2018-09-23T20:36:56.261Z,3.67
2018-09-23T20:39:26.077Z,6.80
2018-09-23T20:41:56.580Z,3.72
2018-09-23T20:44:26.303Z,5.87
2018-09-23T20:46:56.181Z,3.58
2018-09-23T20:49:26.211Z,4.92
2018-09-23T20:51:55.983Z,7.20
2018-09-23T20:54:25.723Z,4.55
2018-09-23T20:56:55.667Z,4.97
2018-09-23T20:59:25.627Z,5.10
2018-09-23T21:01:55.444Z,5.57
2018-09-23T21:04:25.499Z,6.10
2018-09-23T21:06:55.371Z,5.28
2018-09-23T21:09:25.145Z,7.70
2018-09-23T21:11:55.978Z,5.78
2018-09-23T21:14:25.676Z,5.17
2018-09-23T21:16:55.504Z,6.58
2018-09-23T21:19:25.391Z,6.55
2018-09-23T21:21:55.295Z,8.03
2018-09-23T21:24:25.000Z,7.40
2018-09-23T21:26:54.685Z,7.65
2018-09-23T21:29:24.506Z,9.90
2018-09-23T21:31:54.201Z,10.00
2018-09-23T21:34:24.059Z,11.83
2018-09-23T21:36:53.726Z,10.28
2018-09-23T21:39:23.465Z,7.00
2018-09-23T21:41:53.173Z,8.35
2018-09-23T21:44:22.843Z,7.35
2018-09-23T21:46:52.787Z,10.45
2018-09-23T21:49:22.473Z,10.00
2018-09-23T21:51:52.242Z,9.55
2018-09-23T21:54:21.914Z,9.30
2018-09-23T21:56:51.927Z,12.82
2018-09-23T21:59:21.790Z,8.83
2018-09-23T22:01:51.556Z,9.13
2018-09-23T22:04:21.243Z,8.83
2018-09-23T22:06:50.924Z,8.55
2018-09-23T22:09:20.658Z,8.63
2018-09-23T22:11:50.354Z,8.05
2018-09-23T22:14:20.082Z,11.73
2018-09-23T22:16:49.919Z,9.23
2018-09-23T22:19:19.660Z,10.25
2018-09-23T22:21:49.425Z,12.25
2018-09-23T22:24:19.054Z,14.78
2018-09-23T22:26:48.788Z,9.90
2018-09-23T22:29:18.475Z,15.68
2018-09-23T22:31:48.134Z,10.30
2018-09-23T22:34:17.773Z,8.95
2018-09-23T22:36:47.514Z,10.90
2018-09-23T22:39:17.202Z,10.80
2018-09-23T22:41:46.866Z,8.53
2018-09-23T22:44:16.541Z,9.20
2018-09-23T22:46:46.282Z,9.58
2018-09-23T22:49:15.981Z,9.13
2018-09-23T22:51:45.747Z,10.08
2018-09-23T22:54:15.459Z,12.13
2018-09-23T22:56:45.116Z,10.08
2018-09-23T22:59:14.926Z,11.10
2018-09-23T23:01:44.620Z,8.58
2018-09-23T23:04:14.403Z,10.15
2018-09-23T23:06:44.061Z,9.28
2018-09-23T23:09:13.711Z,16.12
2018-09-23T23:11:43.406Z,8.20
2018-09-23T23:14:13.109Z,9.50
2018-09-23T23:16:42.836Z,16.52
2018-09-23T23:19:12.559Z,9.40
2018-09-23T23:21:42.193Z,8.80
2018-09-23T23:24:11.958Z,10.15
2018-09-23T23:26:41.637Z,8.98
2018-09-23T23:29:11.333Z,8.50
2018-09-23T23:31:41.045Z,8.00
2018-09-23T23:34:10.689Z,8.43
2018-09-23T23:36:40.457Z,8.95
2018-09-23T23:39:11.146Z,14.25
2018-09-23T23:41:41.085Z,10.75
2018-09-23T23:44:10.877Z,8.35
2018-09-23T23:46:40.537Z,9.98
2018-09-23T23:49:10.219Z,11.97
2018-09-23T23:51:39.924Z,11.03
2018-09-23T23:54:09.695Z,8.18
2018-09-23T23:56:39.470Z,9.55
2018-09-23T23:59:09.233Z,7.72
